Criglersville, Virginia
Current Conditions -  °F | °C
As of 3:15 PM on Monday 26 Jan 2015 (Local Time) from KOMH Reporting Station
Overcast Overcast  
Wind Chill: 26°   Ceiling: 500
Heat Index: 34°   Visibility: 10mi
Dew Point: 34°   Wind: 10mph
Humidity: 100%   Direction: 340°NNW
Pressure: 29.69"   Gusts: NA
Location:  38.4007°N, 78.3336°W
Report Text: KOMH 262015Z AUTO 34009KT 10SM OVC005 01/01 A2969 RMK AO2
Loading
Personal Weather Stations






























Interactive Weather Map New forecast layout! Learn more

10-Day Weather Forecast

Advertisements
Track Severe Weather on mobile